»·PEaware :: SAS226 KRNO-KLAX

SAS226 :: KRNO-KLAX

FLIGHT INFORMATION

Flight Status: Arrived
Operator:
SAS
More flights by this operator :: More flights under this callsign
Pilot: Anonymous 9219 (9219)
Aircraft: BOEING 767-300
(B763)
More flights by this aircraft type
Origin: KRNO Reno/Tahoe Intl
United States
Destination: KLAX Los Angeles Intl
United States
More flights between these airports :: More routes between these airports
Route: +FMG J7 DERBB SADDE6
File this flight plan on PilotEdge
Remarks: RMK / LIVE STREAM TWITCH.TV / GIANTUNICORN
Altitude:
(Current/Filed)
31,000ft
Speed:
(Current/Filed)
460kts
Departed: 13-Dec-15 07:57 PM
Arrived: 13-Dec-15 09:03 PM
Distance/Time
Traveled:
339nm/1:06
Distance/Time
To Go:
Arrived

Flight Plot

Page will automatically refresh every two minutes.


Map Options




Map Legend


Flown Route
Filed Route
Departure Airport
Arrival Airport
Navaid (VOR, NDB)
Fix

Horizontal Profiles

Position Reports

Time Latitude Longitude Heading Altitude Ground
Speed
13-Dec-15 19:29 39.506878 -119.772213 282 4426ft 0kts
13-Dec-15 19:30 39.506878 -119.772213 282 4426ft 0kts
13-Dec-15 19:31 39.506878 -119.772213 282 4426ft 0kts
13-Dec-15 19:32 39.506878 -119.772213 282 4426ft 0kts
13-Dec-15 19:33 39.506878 -119.772213 282 4426ft 0kts
13-Dec-15 19:34 39.506878 -119.772213 282 4426ft 0kts
13-Dec-15 19:36 39.506878 -119.772213 282 4426ft 0kts
13-Dec-15 19:37 39.506878 -119.772213 282 4426ft 0kts
13-Dec-15 19:38 39.506878 -119.772213 282 4426ft 0kts
13-Dec-15 19:39 39.506875 -119.772196 282 4426ft 1kts
13-Dec-15 19:40 39.506801 -119.771519 241 4426ft 1kts
13-Dec-15 19:41 39.506948 -119.771407 180 4426ft 0kts
13-Dec-15 19:42 39.506948 -119.771407 180 4426ft 0kts
13-Dec-15 19:43 39.506948 -119.771407 180 4426ft 0kts
13-Dec-15 19:44 39.506948 -119.771407 180 4426ft 0kts
13-Dec-15 19:45 39.506948 -119.771407 180 4426ft 0kts
13-Dec-15 19:46 39.504935 -119.771510 181 4426ft 16kts
13-Dec-15 19:47 39.499673 -119.771511 180 4426ft 20kts
13-Dec-15 19:48 39.494460 -119.771538 182 4426ft 16kts
13-Dec-15 19:49 39.490298 -119.771557 180 4426ft 13kts
13-Dec-15 19:50 39.489806 -119.771555 180 4426ft 0kts
13-Dec-15 19:51 39.488936 -119.770405 152 4426ft 1kts
13-Dec-15 19:52 39.487824 -119.770694 184 4426ft 9kts
13-Dec-15 19:53 39.486993 -119.769282 358 4426ft 7kts
13-Dec-15 19:54 39.502645 -119.769192 357 4436ft 153kts
13-Dec-15 19:55 39.528204 -119.725145 91 6000ft 224kts
13-Dec-15 19:56 39.500334 -119.646399 165 8106ft 286kts
13-Dec-15 19:57 39.420797 -119.651636 184 10743ft 328kts
13-Dec-15 19:58 39.322214 -119.650501 184 13551ft 379kts
13-Dec-15 19:59 39.221704 -119.647999 186 17082ft 387kts
13-Dec-15 20:00 39.114550 -119.645301 187 20112ft 402kts
13-Dec-15 20:01 39.001387 -119.642424 187 22795ft 419kts
13-Dec-15 20:02 38.885934 -119.639486 187 25131ft 434kts
13-Dec-15 20:03 38.764886 -119.636417 188 27257ft 448kts
13-Dec-15 20:04 38.639173 -119.633232 188 29282ft 459kts
13-Dec-15 20:05 38.514041 -119.630032 188 30752ft 448kts
13-Dec-15 20:06 38.391155 -119.626994 188 30777ft 452kts
13-Dec-15 20:07 38.271443 -119.623991 188 30774ft 452kts
13-Dec-15 20:08 38.146945 -119.620892 188 30775ft 452kts
13-Dec-15 20:09 38.022218 -119.617796 188 30775ft 452kts
13-Dec-15 20:10 37.897265 -119.614708 188 30775ft 452kts
13-Dec-15 20:11 37.773202 -119.611653 188 30775ft 452kts
13-Dec-15 20:12 37.648815 -119.608568 189 30837ft 450kts
13-Dec-15 20:13 37.525905 -119.605600 190 30928ft 453kts
13-Dec-15 20:14 37.404798 -119.602654 190 31017ft 459kts
13-Dec-15 20:15 37.280995 -119.599626 190 31017ft 459kts
13-Dec-15 20:16 37.153723 -119.596547 190 31017ft 462kts
13-Dec-15 20:16 37.048015 -119.593987 190 31018ft 462kts
13-Dec-15 20:17 36.920802 -119.590922 190 31018ft 462kts
13-Dec-15 20:19 36.773764 -119.587391 190 31019ft 462kts
13-Dec-15 20:19 36.672667 -119.584977 190 31020ft 462kts
13-Dec-15 20:20 36.547760 -119.582010 189 31033ft 471kts
13-Dec-15 20:21 36.433315 -119.579277 189 31045ft 470kts
13-Dec-15 20:22 36.305671 -119.576249 189 31044ft 470kts
13-Dec-15 20:23 36.177482 -119.573220 189 31044ft 470kts
13-Dec-15 20:24 36.047750 -119.570165 189 31045ft 470kts
13-Dec-15 20:25 35.917489 -119.567108 189 31046ft 470kts
13-Dec-15 20:26 35.788457 -119.564081 189 31047ft 469kts
13-Dec-15 20:27 35.663747 -119.575708 202 31054ft 449kts
13-Dec-15 20:28 35.543535 -119.597454 199 31048ft 453kts
13-Dec-15 20:29 35.427514 -119.615397 199 31044ft 454kts
13-Dec-15 20:30 35.309791 -119.632202 194 31011ft 437kts
13-Dec-15 20:31 35.190675 -119.590782 156 31047ft 499kts
13-Dec-15 20:32 35.081122 -119.492471 153 31046ft 491kts
13-Dec-15 20:34 34.971438 -119.398796 153 30138ft 487kts
13-Dec-15 20:35 34.860170 -119.304522 153 28022ft 499kts
13-Dec-15 20:36 34.750511 -119.211783 153 26939ft 467kts
13-Dec-15 20:37 34.645886 -119.123763 152 24601ft 465kts
13-Dec-15 20:38 34.541510 -119.036183 152 24011ft 471kts
13-Dec-15 20:39 34.438563 -118.950002 152 24007ft 467kts
13-Dec-15 20:40 34.347099 -118.878807 172 20516ft 363kts
13-Dec-15 20:41 34.262817 -118.846609 174 14916ft 327kts
13-Dec-15 20:42 34.180854 -118.816477 173 12034ft 312kts
13-Dec-15 20:43 34.099293 -118.786589 172 10801ft 304kts
13-Dec-15 20:44 34.034683 -118.726290 102 9272ft 329kts
13-Dec-15 20:45 34.025986 -118.624454 98 7452ft 291kts
13-Dec-15 20:46 34.017311 -118.531501 98 6994ft 283kts
13-Dec-15 20:47 34.012203 -118.440969 81 6924ft 266kts
13-Dec-15 20:48 34.019616 -118.357201 81 6065ft 240kts
13-Dec-15 20:49 34.024461 -118.281591 81 4583ft 226kts
13-Dec-15 20:50 34.029854 -118.210758 81 3076ft 215kts
13-Dec-15 20:51 34.036236 -118.144151 81 2506ft 199kts
13-Dec-15 20:52 34.015750 -118.092113 152 2518ft 191kts
13-Dec-15 20:53 33.973788 -118.097184 261 2481ft 174kts
13-Dec-15 20:54 33.974519 -118.153027 267 2499ft 167kts
13-Dec-15 20:55 33.971093 -118.208116 264 2493ft 164kts
13-Dec-15 20:56 33.966163 -118.262148 264 2413ft 164kts
13-Dec-15 20:57 33.961291 -118.311141 264 1525ft 133kts
13-Dec-15 20:58 33.956837 -118.355444 263 898ft 134kts
13-Dec-15 20:59 33.952277 -118.400168 264 221ft 136kts
13-Dec-15 21:00 33.948511 -118.426767 225 136ft 10kts
13-Dec-15 21:01 33.946673 -118.427751 166 136ft 1kts
13-Dec-15 21:02 33.946678 -118.423761 82 136ft 20kts
13-Dec-15 21:03 33.947426 -118.416276 83 136ft 22kts
13-Dec-15 21:04 33.948286 -118.409421 89 136ft 11kts
13-Dec-15 21:05 33.946338 -118.408317 88 136ft 4kts

Navigation Log

Ident Type
1. KRNO Airport
2. FMG Navaid
3. GENNE Fix
4. FRA Navaid
5. REBRG Fix
6. DERBB Fix
7. REYES Fix
8. FIM Navaid
9. SYMON Fix
10. SADDE Fix
11. BAYST Fix
12. SMO Navaid
13. JAVSI Fix
14. KLAX Airport